KMCW

Mason City Municipal Airport

Airport
ICAO code
KMCW
Summary
ICAO Region
NAM
ICAO Territory
Location

Mason City Municipal Airport,

Coordinates
43° 8' 60" N , 93° 20' 17" W
KCC
Airport CFIT
Altimeter Temperature Error Correction
Metar
Observation
KMCW 070753Z AUTO 35005KT 10SM CLR 02/01 A3044 RMK AO2 SLP309 T00220006
Station
Mason City, Mason City Municipal Airport
Date/Time
2022-10-07 07:53:00
Wind direction
350°
Wind speed
05 kts
Lowest cloud amount
n/a
Temperature
2.2°C
Dew point
0.6°C
Humidity
89%
Weather condition
n/a

Description

Mason City Municipal Airport is a public use airport located 9 km west of the central business district of Mason City, in Cerro Gordo County, Iowa.

Climatology

Humid continental climate (Köppen climate classification Dfa) - characterized by four seasons: cold, windy, snowy winters, mild springs, hot, humid summers, and crisp and relatively short autumns. Precipitation reaches its lowest in January and February and peaks in summer and latter half of spring.

Runways

Designator Length Width Surface Rops
12/30 1677 46 ASP Yes/Yes
18/36 1982 46 ASP Yes/Yes

Airport map

Aerial View

SKYbrary Partners:

Safety knowledge contributed by: